createdAt,value
2023-01-28T00:01:39.408Z,-1.10
2023-01-28T00:04:06.324Z,-1.10
2023-01-28T00:06:33.159Z,-1.10
2023-01-28T00:08:59.927Z,-1.10
2023-01-28T00:11:26.728Z,-1.10
2023-01-28T00:13:54.511Z,-1.10
2023-01-28T00:16:26.762Z,-1.10
2023-01-28T00:18:54.432Z,-1.10
2023-01-28T00:21:21.217Z,-1.10
2023-01-28T00:23:54.799Z,-1.10
2023-01-28T00:26:23.608Z,-1.10
2023-01-28T00:28:50.398Z,-1.10
2023-01-28T00:31:18.876Z,-1.10
2023-01-28T00:33:47.326Z,-1.10
2023-01-28T00:36:14.884Z,-1.10
2023-01-28T00:38:42.690Z,-1.00
2023-01-28T00:41:15.689Z,-1.00
2023-01-28T00:43:43.613Z,-1.10
2023-01-28T00:46:12.330Z,-1.10
2023-01-28T00:48:40.426Z,-1.10
2023-01-28T00:51:08.246Z,-1.00
2023-01-28T00:53:36.452Z,-1.00
2023-01-28T00:56:07.314Z,-1.00
2023-01-28T00:58:34.885Z,-1.10
2023-01-28T01:01:12.253Z,-1.10
2023-01-28T01:03:39.605Z,-1.10
2023-01-28T01:06:07.093Z,-1.10
2023-01-28T01:08:40.075Z,-1.10
2023-01-28T01:11:07.616Z,-1.10
2023-01-28T01:13:37.535Z,-1.10
2023-01-28T01:16:13.571Z,-1.10
2023-01-28T01:18:43.393Z,-1.10
2023-01-28T01:21:12.961Z,-1.10
2023-01-28T01:23:42.462Z,-1.10
2023-01-28T01:26:09.635Z,-1.10
2023-01-28T01:28:37.079Z,-1.10
2023-01-28T01:31:15.955Z,-1.10
2023-01-28T01:33:44.509Z,-1.10
2023-01-28T01:36:12.941Z,-1.10
2023-01-28T01:38:41.047Z,-1.10
2023-01-28T01:41:08.857Z,-1.10
2023-01-28T01:43:55.144Z,-1.10
2023-01-28T01:46:33.439Z,-1.10
2023-01-28T01:49:29.657Z,-1.10
2023-01-28T01:52:07.086Z,-1.10
2023-01-28T01:54:35.832Z,-1.10
2023-01-28T01:57:03.540Z,-1.10
2023-01-28T01:59:33.187Z,-1.10
2023-01-28T02:02:07.706Z,-1.00
2023-01-28T02:04:42.077Z,-1.10
2023-01-28T02:07:12.544Z,-1.10
2023-01-28T02:09:41.500Z,-1.10
2023-01-28T02:12:11.374Z,-1.10
2023-01-28T02:14:46.976Z,-1.10
2023-01-28T02:17:14.247Z,-1.10
2023-01-28T02:19:48.331Z,-1.10
2023-01-28T02:22:51.943Z,-1.10
2023-01-28T02:25:37.474Z,-1.10
2023-01-28T02:28:18.087Z,-1.10
2023-01-28T02:30:53.514Z,-1.10
2023-01-28T02:33:49.120Z,-1.10
2023-01-28T02:36:15.775Z,-1.10
2023-01-28T02:38:48.057Z,-1.10
2023-01-28T02:41:30.020Z,-1.10
2023-01-28T02:43:56.731Z,-1.10
2023-01-28T02:46:44.700Z,-1.10
2023-01-28T02:49:17.438Z,-1.10
2023-01-28T02:51:50.503Z,-1.10
2023-01-28T02:54:28.329Z,-1.10
2023-01-28T02:57:18.062Z,-1.10
2023-01-28T03:00:01.754Z,-1.10
2023-01-28T03:02:36.267Z,-1.10
2023-01-28T03:05:09.370Z,-1.10
2023-01-28T03:07:38.545Z,-1.10
2023-01-28T03:10:10.393Z,-1.10
2023-01-28T03:13:00.593Z,-1.10
2023-01-28T03:15:54.131Z,-1.10
2023-01-28T03:18:47.590Z,-1.10
2023-01-28T03:21:44.911Z,-1.10
2023-01-28T03:24:41.975Z,-1.10
2023-01-28T03:27:42.925Z,-1.10
2023-01-28T03:30:42.659Z,-1.10
2023-01-28T03:33:28.901Z,-1.10
2023-01-28T03:36:14.398Z,-1.10
2023-01-28T03:38:42.899Z,-1.10
2023-01-28T03:41:11.529Z,-1.10
2023-01-28T03:43:38.409Z,-1.10
2023-01-28T03:46:06.483Z,-1.10
2023-01-28T03:48:33.351Z,-1.10
2023-01-28T03:51:03.055Z,-1.10
2023-01-28T03:53:29.933Z,-1.10
2023-01-28T03:55:56.952Z,-1.10
2023-01-28T03:58:46.477Z,-1.10
2023-01-28T04:01:14.093Z,-1.10
2023-01-28T04:03:40.837Z,-1.10
2023-01-28T04:06:09.529Z,-1.10
2023-01-28T04:08:36.319Z,-1.10
2023-01-28T04:11:20.095Z,-1.10
2023-01-28T04:13:47.912Z,-1.10
2023-01-28T04:16:17.216Z,-1.10
2023-01-28T04:18:44.909Z,-1.10
2023-01-28T04:21:12.489Z,-1.10
2023-01-28T04:23:39.363Z,-1.10
2023-01-28T04:26:06.161Z,-1.10
2023-01-28T04:28:32.975Z,-1.10
2023-01-28T04:30:59.863Z,-1.10
2023-01-28T04:33:26.667Z,-1.10
2023-01-28T04:35:53.463Z,-1.10
2023-01-28T04:38:20.339Z,-1.10
2023-01-28T04:40:50.705Z,-1.10
2023-01-28T04:43:18.079Z,-1.10
2023-01-28T04:45:44.866Z,-1.10
2023-01-28T04:48:11.674Z,-1.00
2023-01-28T04:50:38.421Z,-1.10
2023-01-28T04:53:05.146Z,-1.00
2023-01-28T04:55:31.930Z,-1.10
2023-01-28T04:57:58.680Z,-1.10
2023-01-28T05:00:25.468Z,-1.10
2023-01-28T05:02:52.217Z,-1.10
2023-01-28T05:05:19.094Z,-1.10
2023-01-28T05:07:51.860Z,-1.10
2023-01-28T05:10:19.608Z,-1.10
2023-01-28T05:12:48.127Z,-1.10
2023-01-28T05:15:16.646Z,-1.10
2023-01-28T05:17:44.199Z,-1.10
2023-01-28T05:20:13.401Z,-1.10
2023-01-28T05:22:40.680Z,-1.10
2023-01-28T05:25:08.127Z,-1.10
2023-01-28T05:27:34.903Z,-1.10
2023-01-28T05:30:01.692Z,-1.10
2023-01-28T05:32:28.523Z,-1.10
2023-01-28T05:34:55.320Z,-1.10
2023-01-28T05:37:22.101Z,-1.10
2023-01-28T05:39:48.874Z,-1.10
2023-01-28T05:42:15.833Z,-1.10
2023-01-28T05:44:42.576Z,-1.10
2023-01-28T05:47:09.305Z,-1.10
2023-01-28T05:49:36.055Z,-1.10
2023-01-28T05:52:02.893Z,-1.10
2023-01-28T05:54:29.595Z,-1.10
2023-01-28T05:56:56.363Z,-1.10
2023-01-28T05:59:23.099Z,-1.10
2023-01-28T06:01:49.842Z,-1.10
2023-01-28T06:04:18.938Z,-1.10
2023-01-28T06:06:46.270Z,-1.10
2023-01-28T06:09:13.072Z,-1.10
2023-01-28T06:11:39.839Z,-1.10
2023-01-28T06:14:06.771Z,-1.10
2023-01-28T06:16:33.600Z,-1.10
2023-01-28T06:19:00.411Z,-1.10
2023-01-28T06:21:29.910Z,-1.10
2023-01-28T06:23:56.952Z,-1.10
2023-01-28T06:26:23.874Z,-1.20
2023-01-28T06:28:50.606Z,-1.10
2023-01-28T06:31:17.319Z,-1.10
2023-01-28T06:33:44.506Z,-1.10
2023-01-28T06:36:11.253Z,-1.10
2023-01-28T06:38:38.112Z,-1.10
2023-01-28T06:41:05.095Z,-1.10
2023-01-28T06:43:31.869Z,-1.10
2023-01-28T06:45:59.125Z,-1.10
2023-01-28T06:48:26.988Z,-1.10
2023-01-28T06:50:54.113Z,-1.10
2023-01-28T06:53:21.852Z,-1.10
2023-01-28T06:55:49.187Z,-1.00
2023-01-28T06:58:16.102Z,-1.10
2023-01-28T07:00:42.824Z,-1.10
2023-01-28T07:03:17.167Z,-1.00
2023-01-28T07:05:43.997Z,-1.00
2023-01-28T07:08:10.718Z,-1.00
2023-01-28T07:10:37.482Z,-1.00
2023-01-28T07:13:04.256Z,-1.00
2023-01-28T07:15:31.096Z,-1.00
2023-01-28T07:17:58.710Z,-1.00
2023-01-28T07:20:26.343Z,-1.00
2023-01-28T07:22:55.906Z,-1.00
2023-01-28T07:25:22.650Z,-1.00
2023-01-28T07:27:51.387Z,-1.00
2023-01-28T07:30:19.378Z,-1.00
2023-01-28T07:32:46.567Z,-1.00
2023-01-28T07:35:13.598Z,-1.00
2023-01-28T07:37:40.502Z,-1.00
2023-01-28T07:40:08.163Z,-1.00
2023-01-28T07:42:34.994Z,-1.00
2023-01-28T07:45:01.980Z,-0.90
2023-01-28T07:47:28.811Z,-0.90
2023-01-28T07:49:55.599Z,-0.80
2023-01-28T07:52:22.388Z,-0.80
2023-01-28T07:54:49.124Z,-0.80
2023-01-28T07:57:23.158Z,-0.70
2023-01-28T07:59:53.836Z,-0.70
2023-01-28T08:02:20.724Z,-0.70
2023-01-28T08:04:47.663Z,-0.70
2023-01-28T08:07:14.601Z,-0.70
2023-01-28T08:09:41.413Z,-0.70
2023-01-28T08:12:08.171Z,-0.70
2023-01-28T08:14:35.033Z,-0.70
2023-01-28T08:17:01.881Z,-0.60
2023-01-28T08:19:28.676Z,-0.70
2023-01-28T08:21:55.467Z,-0.70
2023-01-28T08:24:22.232Z,-0.60
2023-01-28T08:26:49.345Z,-0.70
2023-01-28T08:29:16.201Z,-0.60
2023-01-28T08:31:43.252Z,-0.60
2023-01-28T08:34:10.134Z,-0.60
2023-01-28T08:36:36.895Z,-0.50
2023-01-28T08:39:03.843Z,-0.50
2023-01-28T08:41:31.147Z,-0.50
2023-01-28T08:43:58.380Z,-0.50
2023-01-28T08:46:25.141Z,-0.50
2023-01-28T08:48:51.953Z,-0.50
2023-01-28T08:51:18.694Z,-0.50
2023-01-28T08:53:45.461Z,-0.50
2023-01-28T08:56:12.309Z,-0.50
2023-01-28T08:58:39.048Z,-0.40
2023-01-28T09:01:06.950Z,-0.40
2023-01-28T09:03:34.136Z,-0.40
2023-01-28T09:06:04.885Z,-0.40
2023-01-28T09:08:32.249Z,-0.40
2023-01-28T09:11:00.136Z,-0.30
2023-01-28T09:13:27.321Z,-0.30
2023-01-28T09:15:54.319Z,-0.30
2023-01-28T09:18:21.270Z,-0.20
2023-01-28T09:20:48.138Z,-0.20
2023-01-28T09:23:15.213Z,-0.20
2023-01-28T09:25:41.973Z,-0.20
2023-01-28T09:28:08.990Z,-0.10
2023-01-28T09:30:37.785Z,-0.10
2023-01-28T09:33:05.254Z,0.00
2023-01-28T09:35:33.881Z,0.00
2023-01-28T09:38:00.669Z,-0.10
2023-01-28T09:40:36.009Z,0.00
2023-01-28T09:43:25.910Z,0.00
2023-01-28T09:45:56.508Z,0.00
2023-01-28T09:48:30.841Z,0.00
2023-01-28T09:50:57.857Z,0.00
2023-01-28T09:53:24.605Z,-0.10
2023-01-28T09:56:06.290Z,-0.10
2023-01-28T09:58:33.124Z,-0.20
2023-01-28T10:01:17.686Z,-0.20
2023-01-28T10:03:59.425Z,-0.20
2023-01-28T10:06:41.674Z,-0.10
2023-01-28T10:09:17.412Z,-0.10
2023-01-28T10:11:49.998Z,0.00
2023-01-28T10:14:37.499Z,0.10
2023-01-28T10:17:19.353Z,0.20
2023-01-28T10:20:03.310Z,0.20
2023-01-28T10:22:48.515Z,0.30
2023-01-28T10:25:24.785Z,0.30
2023-01-28T10:27:52.253Z,0.20
2023-01-28T10:30:25.698Z,0.30
2023-01-28T10:32:52.640Z,0.20
2023-01-28T10:35:20.483Z,0.20
2023-01-28T10:37:47.659Z,0.10
2023-01-28T10:40:17.380Z,0.10
2023-01-28T10:42:45.593Z,0.10
2023-01-28T10:45:18.193Z,0.10
2023-01-28T10:48:00.991Z,0.20
2023-01-28T10:50:29.710Z,0.20
2023-01-28T10:53:01.141Z,0.10
2023-01-28T10:55:51.919Z,0.20
2023-01-28T10:58:22.210Z,0.20
2023-01-28T11:01:01.315Z,0.20
2023-01-28T11:03:30.916Z,0.30
2023-01-28T11:05:59.048Z,0.30
2023-01-28T11:08:28.585Z,0.30
2023-01-28T11:10:57.253Z,0.30
2023-01-28T11:13:30.012Z,0.40
2023-01-28T11:16:14.703Z,0.50
2023-01-28T11:18:50.944Z,0.50
2023-01-28T11:21:27.430Z,0.40
2023-01-28T11:23:59.657Z,0.50
2023-01-28T11:26:28.295Z,0.50
2023-01-28T11:28:55.557Z,0.60
2023-01-28T11:31:24.377Z,0.60
2023-01-28T11:33:57.768Z,0.60
2023-01-28T11:36:27.275Z,0.60
2023-01-28T11:39:00.371Z,0.60
2023-01-28T11:41:30.241Z,0.60
2023-01-28T11:43:58.964Z,0.60
2023-01-28T11:46:45.221Z,0.60
2023-01-28T11:49:30.318Z,0.70
2023-01-28T11:52:34.850Z,0.80
2023-01-28T11:55:21.641Z,1.00
2023-01-28T11:57:57.690Z,1.10
2023-01-28T12:00:58.317Z,1.10
2023-01-28T12:03:46.715Z,1.00
2023-01-28T12:06:36.101Z,1.00
2023-01-28T12:09:43.035Z,1.00
2023-01-28T12:12:34.455Z,1.10
2023-01-28T12:15:22.086Z,1.10
2023-01-28T12:18:13.807Z,1.20
2023-01-28T12:20:49.767Z,1.10
2023-01-28T12:24:10.320Z,1.10
2023-01-28T12:27:17.191Z,1.10
2023-01-28T12:29:53.409Z,1.20
2023-01-28T12:32:23.182Z,1.30
2023-01-28T12:35:06.893Z,1.30
2023-01-28T12:37:36.340Z,1.20
2023-01-28T12:40:08.794Z,1.20
2023-01-28T12:43:04.754Z,1.40
2023-01-28T12:45:40.863Z,1.50
2023-01-28T12:48:27.437Z,1.30
2023-01-28T12:51:04.999Z,1.40
2023-01-28T12:53:51.355Z,1.40
2023-01-28T12:56:19.827Z,1.40
2023-01-28T12:58:55.846Z,1.40
2023-01-28T13:01:29.463Z,1.40
2023-01-28T13:04:17.406Z,1.40
2023-01-28T13:06:47.001Z,1.40
2023-01-28T13:09:22.535Z,1.40
2023-01-28T13:11:51.925Z,1.40
2023-01-28T13:14:22.268Z,1.40
2023-01-28T13:16:49.063Z,1.50
2023-01-28T13:19:18.705Z,1.50
2023-01-28T13:21:49.565Z,1.40
2023-01-28T13:24:16.618Z,1.30
2023-01-28T13:26:47.691Z,1.20
2023-01-28T13:29:14.409Z,1.20
2023-01-28T13:31:46.608Z,1.20
2023-01-28T13:34:33.006Z,1.20
2023-01-28T13:37:29.989Z,1.20
2023-01-28T13:40:02.746Z,1.20
2023-01-28T13:42:31.240Z,1.20
2023-01-28T13:45:17.098Z,1.20
2023-01-28T13:47:46.913Z,1.30
2023-01-28T13:50:18.733Z,1.30
2023-01-28T13:53:10.121Z,1.30
2023-01-28T13:55:44.559Z,1.20
2023-01-28T13:58:49.747Z,1.20
2023-01-28T14:01:37.581Z,1.10
2023-01-28T14:04:23.804Z,1.10
2023-01-28T14:07:12.453Z,1.10
2023-01-28T14:10:09.335Z,1.10
2023-01-28T14:13:00.659Z,1.00
2023-01-28T14:16:00.947Z,1.00
2023-01-28T14:18:36.798Z,1.20
2023-01-28T14:21:13.056Z,1.20
2023-01-28T14:23:45.920Z,1.30
2023-01-28T14:27:00.181Z,1.40
2023-01-28T14:29:29.594Z,1.40
2023-01-28T14:31:56.543Z,1.50
2023-01-28T14:34:28.612Z,1.60
2023-01-28T14:37:01.616Z,1.60
2023-01-28T14:39:31.404Z,1.60
2023-01-28T14:42:01.561Z,1.70
2023-01-28T14:44:36.769Z,1.70
2023-01-28T14:47:18.562Z,1.60
2023-01-28T14:50:05.694Z,1.50
2023-01-28T14:52:47.491Z,1.40
2023-01-28T14:55:38.012Z,1.40
2023-01-28T14:58:11.938Z,1.30
2023-01-28T15:00:39.721Z,1.20
2023-01-28T15:03:26.043Z,1.10
2023-01-28T15:06:26.487Z,1.00
2023-01-28T15:08:54.532Z,0.90
2023-01-28T15:11:24.969Z,0.90
2023-01-28T15:13:58.803Z,0.80
2023-01-28T15:16:31.464Z,0.70
2023-01-28T15:19:01.531Z,0.70
2023-01-28T15:21:30.046Z,0.70
2023-01-28T15:23:59.750Z,0.70
2023-01-28T15:26:29.056Z,0.60
2023-01-28T15:28:56.653Z,0.50
2023-01-28T15:31:26.453Z,0.50
2023-01-28T15:34:12.974Z,0.40
2023-01-28T15:36:40.220Z,0.30
2023-01-28T15:39:15.107Z,0.40
2023-01-28T15:41:47.452Z,0.30
2023-01-28T15:44:22.498Z,0.40
2023-01-28T15:46:49.324Z,0.30
2023-01-28T15:49:17.283Z,0.30
2023-01-28T15:51:51.126Z,0.30
2023-01-28T15:54:19.663Z,0.30
2023-01-28T15:56:46.486Z,0.30
2023-01-28T15:59:18.118Z,0.30
2023-01-28T16:01:44.914Z,0.20
2023-01-28T16:04:27.034Z,0.20
2023-01-28T16:06:56.346Z,0.20
2023-01-28T16:09:30.401Z,0.20
2023-01-28T16:12:06.676Z,0.20
2023-01-28T16:14:43.937Z,0.20
2023-01-28T16:17:17.163Z,0.20
2023-01-28T16:19:47.816Z,0.20
2023-01-28T16:22:27.368Z,0.20
2023-01-28T16:24:54.696Z,0.20
2023-01-28T16:27:27.022Z,0.20
2023-01-28T16:29:53.968Z,0.20
2023-01-28T16:32:38.826Z,0.20
2023-01-28T16:35:14.142Z,0.10
2023-01-28T16:37:42.343Z,0.20
2023-01-28T16:40:11.586Z,0.20
2023-01-28T16:42:38.374Z,0.20
2023-01-28T16:45:06.114Z,0.20
2023-01-28T16:47:32.909Z,0.20
2023-01-28T16:49:59.726Z,0.10
2023-01-28T16:52:26.593Z,0.10
2023-01-28T16:54:53.345Z,0.10
2023-01-28T16:57:21.468Z,0.20
2023-01-28T16:59:48.472Z,0.10
2023-01-28T17:02:17.903Z,0.10
2023-01-28T17:04:44.726Z,0.10
2023-01-28T17:07:11.618Z,0.20
2023-01-28T17:09:38.417Z,0.20
2023-01-28T17:12:05.620Z,0.10
2023-01-28T17:14:32.437Z,0.10
2023-01-28T17:16:59.277Z,0.10
2023-01-28T17:19:26.017Z,0.10
2023-01-28T17:21:52.869Z,0.10
2023-01-28T17:24:19.690Z,0.10
2023-01-28T17:26:47.561Z,0.10
2023-01-28T17:29:14.402Z,0.10
2023-01-28T17:31:41.176Z,0.10
2023-01-28T17:34:08.224Z,0.10
2023-01-28T17:36:35.209Z,0.10
2023-01-28T17:39:02.067Z,0.10
2023-01-28T17:41:28.880Z,0.10
2023-01-28T17:43:56.465Z,0.10
2023-01-28T17:46:24.807Z,0.10
2023-01-28T17:48:52.003Z,0.10
2023-01-28T17:51:19.073Z,0.10
2023-01-28T17:53:47.846Z,0.10
2023-01-28T17:56:19.283Z,0.10
2023-01-28T17:58:53.760Z,0.00
2023-01-28T18:01:21.508Z,0.00
2023-01-28T18:03:48.765Z,0.00
2023-01-28T18:06:15.853Z,0.00
2023-01-28T18:08:43.095Z,0.00
2023-01-28T18:11:12.264Z,0.00
2023-01-28T18:13:40.394Z,0.00
2023-01-28T18:16:09.233Z,0.00
2023-01-28T18:18:35.987Z,0.00
2023-01-28T18:21:05.740Z,0.00
2023-01-28T18:23:33.441Z,0.00
2023-01-28T18:26:02.533Z,0.00
2023-01-28T18:28:30.090Z,0.00
2023-01-28T18:31:04.154Z,0.00
2023-01-28T18:33:30.953Z,0.00
2023-01-28T18:35:57.698Z,0.10
2023-01-28T18:38:24.551Z,0.10
2023-01-28T18:40:55.906Z,0.10
2023-01-28T18:43:23.167Z,0.10
2023-01-28T18:45:52.176Z,0.10
2023-01-28T18:48:19.423Z,0.10
2023-01-28T18:50:58.437Z,0.10
2023-01-28T18:53:26.247Z,0.10
2023-01-28T18:55:53.661Z,0.10
2023-01-28T18:58:20.382Z,0.10
2023-01-28T19:00:47.222Z,0.10
2023-01-28T19:03:13.996Z,0.10
2023-01-28T19:05:41.657Z,0.10
2023-01-28T19:08:10.281Z,0.10
2023-01-28T19:10:37.253Z,0.10
2023-01-28T19:13:04.109Z,0.10
2023-01-28T19:15:31.216Z,0.10
2023-01-28T19:17:58.224Z,0.10
2023-01-28T19:20:25.279Z,0.10
2023-01-28T19:22:52.042Z,0.10
2023-01-28T19:25:19.096Z,0.00
2023-01-28T19:27:45.876Z,0.00
2023-01-28T19:30:12.745Z,0.00
2023-01-28T19:32:39.483Z,0.10
2023-01-28T19:35:07.001Z,0.00
2023-01-28T19:37:34.468Z,0.10
2023-01-28T19:40:01.289Z,0.10
2023-01-28T19:42:28.012Z,0.10
2023-01-28T19:44:54.773Z,0.10
2023-01-28T19:47:21.530Z,0.10
2023-01-28T19:49:48.273Z,0.10
2023-01-28T19:52:15.041Z,0.10
2023-01-28T19:54:41.846Z,0.10
2023-01-28T19:57:08.591Z,0.00
2023-01-28T19:59:35.322Z,0.00
2023-01-28T20:02:02.124Z,0.00
2023-01-28T20:04:28.910Z,0.00
2023-01-28T20:06:55.637Z,0.00
2023-01-28T20:09:22.681Z,0.00
2023-01-28T20:11:49.508Z,0.00
2023-01-28T20:14:18.035Z,0.00
2023-01-28T20:16:44.802Z,0.00
2023-01-28T20:19:16.541Z,0.10
2023-01-28T20:21:43.736Z,0.10
2023-01-28T20:24:12.299Z,0.10
2023-01-28T20:26:42.667Z,0.10
2023-01-28T20:29:12.410Z,0.10
2023-01-28T20:31:41.076Z,0.10
2023-01-28T20:34:08.592Z,0.10
2023-01-28T20:36:35.524Z,0.10
2023-01-28T20:39:02.323Z,0.10
2023-01-28T20:41:29.097Z,0.10
2023-01-28T20:43:56.617Z,0.10
2023-01-28T20:46:27.684Z,0.10
2023-01-28T20:48:56.199Z,0.10
2023-01-28T20:51:26.089Z,0.10
2023-01-28T20:53:54.072Z,0.10
2023-01-28T20:56:23.638Z,0.10
2023-01-28T20:58:55.964Z,0.10
2023-01-28T21:01:25.588Z,0.10
2023-01-28T21:03:52.871Z,0.10
2023-01-28T21:06:19.886Z,0.20
2023-01-28T21:08:46.782Z,0.10
2023-01-28T21:11:13.976Z,0.10
2023-01-28T21:13:41.216Z,0.10
2023-01-28T21:16:08.204Z,0.10
2023-01-28T21:18:35.065Z,0.10
2023-01-28T21:21:22.556Z,0.10
2023-01-28T21:23:49.609Z,0.10
2023-01-28T21:26:17.289Z,0.10
2023-01-28T21:28:44.698Z,0.10
2023-01-28T21:31:15.541Z,0.10
2023-01-28T21:33:42.593Z,0.20
2023-01-28T21:36:11.763Z,0.10
2023-01-28T21:38:38.987Z,0.10
2023-01-28T21:41:06.524Z,0.10
2023-01-28T21:43:33.349Z,0.10
2023-01-28T21:46:00.303Z,0.10
2023-01-28T21:48:28.322Z,0.10
2023-01-28T21:51:14.019Z,0.10
2023-01-28T21:53:41.964Z,0.10
2023-01-28T21:56:09.901Z,0.10
2023-01-28T21:58:56.222Z,0.10
2023-01-28T22:01:23.428Z,0.10
2023-01-28T22:03:50.269Z,0.10
2023-01-28T22:06:17.327Z,0.10
2023-01-28T22:08:44.100Z,0.10
2023-01-28T22:11:11.747Z,0.10
2023-01-28T22:13:38.538Z,0.10
2023-01-28T22:16:05.960Z,0.10
2023-01-28T22:18:33.060Z,0.10
2023-01-28T22:21:06.039Z,0.00
2023-01-28T22:23:33.886Z,0.00
2023-01-28T22:26:02.092Z,0.00
2023-01-28T22:28:29.238Z,0.00
2023-01-28T22:31:05.983Z,0.00
2023-01-28T22:33:32.859Z,0.00
2023-01-28T22:35:59.650Z,0.00
2023-01-28T22:38:26.462Z,0.00
2023-01-28T22:40:53.207Z,0.10
2023-01-28T22:43:19.998Z,0.00
2023-01-28T22:45:46.810Z,0.00
2023-01-28T22:48:13.691Z,0.00
2023-01-28T22:50:40.506Z,0.00
2023-01-28T22:53:07.247Z,0.00
2023-01-28T22:55:34.005Z,0.00
2023-01-28T22:58:00.779Z,0.00
2023-01-28T23:00:28.561Z,-0.10
2023-01-28T23:02:55.549Z,0.00
2023-01-28T23:05:22.287Z,0.00
2023-01-28T23:07:49.081Z,-0.10
2023-01-28T23:10:16.196Z,-0.10
2023-01-28T23:12:44.149Z,-0.10
2023-01-28T23:15:29.416Z,-0.10
2023-01-28T23:18:15.068Z,-0.10
2023-01-28T23:21:00.432Z,-0.10
2023-01-28T23:23:46.072Z,-0.10
2023-01-28T23:26:12.800Z,-0.10
2023-01-28T23:28:39.759Z,-0.20
2023-01-28T23:31:06.646Z,-0.20
2023-01-28T23:33:33.413Z,-0.20
2023-01-28T23:36:00.192Z,-0.20
2023-01-28T23:38:27.400Z,-0.20
2023-01-28T23:40:54.912Z,-0.20
2023-01-28T23:43:22.261Z,-0.20
2023-01-28T23:45:48.975Z,-0.30
2023-01-28T23:48:15.766Z,-0.30
2023-01-28T23:50:42.507Z,-0.30
2023-01-28T23:53:13.211Z,-0.30
2023-01-28T23:55:40.680Z,-0.30
2023-01-28T23:58:07.493Z,-0.30
